createdAt,value
2023-02-11T00:00:24.341Z,103581.13
2023-02-11T00:02:54.979Z,103588.31
2023-02-11T00:05:21.753Z,103598.22
2023-02-11T00:07:48.425Z,103593.75
2023-02-11T00:10:15.387Z,103583.84
2023-02-11T00:12:43.251Z,103589.38
2023-02-11T00:15:10.539Z,103592.22
2023-02-11T00:17:37.421Z,103581.44
2023-02-11T00:20:07.228Z,103576.09
2023-02-11T00:22:34.912Z,103571.63
2023-02-11T00:25:04.296Z,103574.34
2023-02-11T00:27:30.996Z,103570.66
2023-02-11T00:29:57.686Z,103567.94
2023-02-11T00:32:24.598Z,103557.16
2023-02-11T00:34:53.627Z,103551.72
2023-02-11T00:37:20.270Z,103557.16
2023-02-11T00:39:47.293Z,103548.13
2023-02-11T00:42:15.348Z,103559.97
2023-02-11T00:44:42.051Z,103562.69
2023-02-11T00:47:08.844Z,103561.81
2023-02-11T00:49:37.029Z,103571.81
2023-02-11T00:52:03.941Z,103571.81
2023-02-11T00:54:30.775Z,103572.69
2023-02-11T00:56:57.559Z,103572.69
2023-02-11T00:59:24.324Z,103577.16
2023-02-11T01:01:51.200Z,103577.25
2023-02-11T01:04:17.955Z,103579.97
2023-02-11T01:06:44.805Z,103578.97
2023-02-11T01:09:11.669Z,103581.69
2023-02-11T01:11:38.371Z,103579.88
2023-02-11T01:14:05.128Z,103578.03
2023-02-11T01:16:32.222Z,103574.34
2023-02-11T01:18:59.044Z,103573.38
2023-02-11T01:21:26.432Z,103573.38
2023-02-11T01:23:53.485Z,103574.34
2023-02-11T01:26:20.215Z,103572.50
2023-02-11T01:28:46.949Z,103577.81
2023-02-11T01:31:14.482Z,103574.16
2023-02-11T01:33:41.529Z,103570.47
2023-02-11T01:36:08.873Z,103570.47
2023-02-11T01:38:36.315Z,103562.50
2023-02-11T01:41:07.118Z,103552.00
2023-02-11T01:43:44.184Z,103545.97
2023-02-11T01:46:32.554Z,103540.16
2023-02-11T01:49:18.617Z,103539.69
2023-02-11T01:52:01.094Z,103542.00
2023-02-11T01:54:51.356Z,103537.63
2023-02-11T01:57:25.328Z,103539.53
2023-02-11T01:59:57.353Z,103543.25
2023-02-11T02:02:30.428Z,103533.25
2023-02-11T02:05:10.215Z,103535.88
2023-02-11T02:07:46.192Z,103533.06
2023-02-11T02:10:19.848Z,103531.25
2023-02-11T02:12:46.596Z,103537.63
2023-02-11T02:15:19.604Z,103530.25
2023-02-11T02:17:57.600Z,103525.81
2023-02-11T02:20:36.692Z,103525.81
2023-02-11T02:23:12.866Z,103525.91
2023-02-11T02:25:59.084Z,103522.28
2023-02-11T02:29:10.225Z,103522.50
2023-02-11T02:32:14.550Z,103534.31
2023-02-11T02:34:50.319Z,103531.50
2023-02-11T02:37:36.929Z,103539.75
2023-02-11T02:40:10.037Z,103541.00
2023-02-11T02:42:39.920Z,103542.25
2023-02-11T02:45:09.111Z,103536.16
2023-02-11T02:47:35.878Z,103533.44
2023-02-11T02:50:04.801Z,103536.06
2023-02-11T02:52:51.780Z,103523.16
2023-02-11T02:56:09.324Z,103524.69
2023-02-11T02:58:47.943Z,103517.34
2023-02-11T03:01:39.902Z,103512.59
2023-02-11T03:04:07.010Z,103505.13
2023-02-11T03:06:46.127Z,103513.28
2023-02-11T03:09:23.944Z,103502.31
2023-02-11T03:11:50.704Z,103498.66
2023-02-11T03:14:19.472Z,103500.38
2023-02-11T03:16:48.633Z,103506.59
2023-02-11T03:19:23.266Z,103502.13
2023-02-11T03:21:51.972Z,103507.47
2023-02-11T03:24:39.866Z,103497.50
2023-02-11T03:27:27.870Z,103492.91
2023-02-11T03:30:17.194Z,103493.97
2023-02-11T03:33:08.932Z,103497.00
2023-02-11T03:35:44.125Z,103493.59
2023-02-11T03:38:18.458Z,103487.38
2023-02-11T03:40:45.789Z,103492.81
2023-02-11T03:43:20.239Z,103479.25
2023-02-11T03:45:50.034Z,103485.53
2023-02-11T03:48:23.728Z,103485.44
2023-02-11T03:50:52.444Z,103493.47
2023-02-11T03:53:21.879Z,103489.91
2023-02-11T03:55:51.975Z,103499.00
2023-02-11T03:58:19.286Z,103491.75
2023-02-11T04:00:46.323Z,103491.84
2023-02-11T04:03:13.693Z,103500.75
2023-02-11T04:05:40.631Z,103501.72
2023-02-11T04:08:08.009Z,103503.69
2023-02-11T04:10:34.908Z,103506.50
2023-02-11T04:13:05.577Z,103511.03
2023-02-11T04:15:32.570Z,103513.66
2023-02-11T04:17:59.394Z,103512.78
2023-02-11T04:20:26.264Z,103510.28
2023-02-11T04:22:52.888Z,103509.47
2023-02-11T04:25:19.785Z,103509.38
2023-02-11T04:27:46.772Z,103513.09
2023-02-11T04:30:13.766Z,103514.91
2023-02-11T04:32:40.532Z,103512.09
2023-02-11T04:35:07.635Z,103516.56
2023-02-11T04:37:34.343Z,103516.47
2023-02-11T04:40:01.179Z,103513.66
2023-02-11T04:42:28.025Z,103515.41
2023-02-11T04:44:54.723Z,103508.22
2023-02-11T04:47:21.576Z,103512.69
2023-02-11T04:49:48.448Z,103510.94
2023-02-11T04:52:15.141Z,103512.69
2023-02-11T04:54:41.963Z,103521.72
2023-02-11T04:57:08.835Z,103518.03
2023-02-11T04:59:35.578Z,103526.25
2023-02-11T05:02:02.473Z,103524.44
2023-02-11T05:04:29.309Z,103518.03
2023-02-11T05:06:58.349Z,103525.22
2023-02-11T05:09:25.511Z,103525.22
2023-02-11T05:11:52.390Z,103527.81
2023-02-11T05:14:19.038Z,103526.88
2023-02-11T05:16:45.849Z,103522.28
2023-02-11T05:19:12.968Z,103526.75
2023-02-11T05:21:41.053Z,103526.75
2023-02-11T05:24:12.307Z,103523.19
2023-02-11T05:26:39.145Z,103519.59
2023-02-11T05:29:06.019Z,103522.28
2023-02-11T05:31:33.471Z,103525.91
2023-02-11T05:34:00.243Z,103523.09
2023-02-11T05:36:26.994Z,103527.63
2023-02-11T05:38:53.722Z,103527.63
2023-02-11T05:41:20.504Z,103532.19
2023-02-11T05:43:51.325Z,103533.06
2023-02-11T05:46:18.434Z,103531.25
2023-02-11T05:48:45.239Z,103528.53
2023-02-11T05:51:11.911Z,103529.38
2023-02-11T05:53:38.685Z,103524.81
2023-02-11T05:56:05.765Z,103526.56
2023-02-11T05:58:33.166Z,103530.09
2023-02-11T06:00:59.981Z,103531.81
2023-02-11T06:03:26.719Z,103531.81
2023-02-11T06:05:53.591Z,103534.53
2023-02-11T06:08:20.420Z,103536.28
2023-02-11T06:10:47.150Z,103539.00
2023-02-11T06:13:14.041Z,103534.41
2023-02-11T06:15:40.841Z,103537.06
2023-02-11T06:18:08.077Z,103530.66
2023-02-11T06:20:35.039Z,103532.50
2023-02-11T06:23:01.775Z,103527.81
2023-02-11T06:25:28.572Z,103520.56
2023-02-11T06:27:55.573Z,103524.16
2023-02-11T06:30:22.483Z,103517.75
2023-02-11T06:32:49.417Z,103529.47
2023-02-11T06:35:16.304Z,103535.81
2023-02-11T06:37:43.536Z,103539.28
2023-02-11T06:40:11.740Z,103533.84
2023-02-11T06:42:39.424Z,103527.56
2023-02-11T06:45:09.212Z,103520.28
2023-02-11T06:47:36.073Z,103522.91
2023-02-11T06:50:03.281Z,103519.31
2023-02-11T06:52:30.113Z,103536.47
2023-02-11T06:54:56.855Z,103533.00
2023-02-11T06:57:23.537Z,103533.97
2023-02-11T06:59:50.388Z,103532.19
2023-02-11T07:02:20.399Z,103529.47
2023-02-11T07:04:47.669Z,103533.09
2023-02-11T07:07:14.555Z,103530.28
2023-02-11T07:09:41.759Z,103533.00
2023-02-11T07:12:10.655Z,103539.19
2023-02-11T07:14:37.764Z,103540.94
2023-02-11T07:17:04.907Z,103539.09
2023-02-11T07:19:32.214Z,103537.28
2023-02-11T07:21:59.085Z,103533.56
2023-02-11T07:24:25.844Z,103538.94
2023-02-11T07:26:55.714Z,103539.69
2023-02-11T07:29:22.649Z,103541.53
2023-02-11T07:31:49.428Z,103549.59
2023-02-11T07:34:16.220Z,103548.69
2023-02-11T07:36:46.091Z,103553.28
2023-02-11T07:39:13.699Z,103553.28
2023-02-11T07:41:40.439Z,103548.69
2023-02-11T07:44:07.663Z,103555.13
2023-02-11T07:46:35.874Z,103557.84
2023-02-11T07:49:03.336Z,103559.56
2023-02-11T07:51:31.222Z,103563.19
2023-02-11T07:54:00.032Z,103556.75
2023-02-11T07:56:28.161Z,103559.47
2023-02-11T07:58:55.620Z,103562.97
2023-02-11T08:01:27.236Z,103560.25
2023-02-11T08:03:58.496Z,103572.88
2023-02-11T08:06:27.493Z,103571.13
2023-02-11T08:08:54.603Z,103562.88
2023-02-11T08:11:26.979Z,103560.06
2023-02-11T08:13:55.408Z,103566.41
2023-02-11T08:16:26.901Z,103559.97
2023-02-11T08:18:55.624Z,103565.28
2023-02-11T08:21:22.355Z,103563.47
2023-02-11T08:23:49.972Z,103573.28
2023-02-11T08:26:19.290Z,103572.19
2023-02-11T08:29:45.849Z,103563.19
2023-02-11T08:36:15.649Z,103576.28
2023-02-11T08:38:42.821Z,103582.59
2023-02-11T08:41:09.656Z,103584.34
2023-02-11T08:43:37.494Z,103592.31
2023-02-11T08:46:05.817Z,103592.19
2023-02-11T08:48:32.675Z,103590.28
2023-02-11T08:50:59.799Z,103594.63
2023-02-11T08:53:27.005Z,103585.41
2023-02-11T08:55:55.380Z,103602.41
2023-02-11T08:58:22.993Z,103600.44
2023-02-11T09:00:50.557Z,103604.81
2023-02-11T09:03:17.577Z,103611.06
2023-02-11T09:05:46.342Z,103616.38
2023-02-11T09:08:14.147Z,103613.56
2023-02-11T09:10:40.866Z,103606.28
2023-02-11T09:13:08.151Z,103616.19
2023-02-11T09:15:35.805Z,103616.09
2023-02-11T09:18:05.986Z,103620.34
2023-02-11T09:20:32.992Z,103627.44
2023-02-11T09:22:59.942Z,103629.88
2023-02-11T09:25:26.967Z,103635.09
2023-02-11T09:27:54.170Z,103636.66
2023-02-11T09:30:21.681Z,103633.75
2023-02-11T09:32:48.557Z,103630.72
2023-02-11T09:35:15.341Z,103632.28
2023-02-11T09:37:42.326Z,103628.50
2023-02-11T09:40:10.380Z,103634.69
2023-02-11T09:43:01.779Z,103638.22
2023-02-11T09:45:31.501Z,103638.97
2023-02-11T09:48:05.910Z,103639.75
2023-02-11T09:50:36.912Z,103639.44
2023-02-11T09:53:15.402Z,103650.22
2023-02-11T09:55:46.741Z,103647.59
2023-02-11T09:58:16.354Z,103651.28
2023-02-11T10:00:57.413Z,103656.84
2023-02-11T10:03:36.003Z,103652.47
2023-02-11T10:06:29.201Z,103658.69
2023-02-11T10:09:04.824Z,103664.03
2023-02-11T10:11:52.485Z,103656.63
2023-02-11T10:14:29.182Z,103659.06
2023-02-11T10:17:38.708Z,103656.03
2023-02-11T10:20:19.217Z,103650.19
2023-02-11T10:22:49.712Z,103651.84
2023-02-11T10:25:26.068Z,103658.81
2023-02-11T10:27:57.150Z,103665.91
2023-02-11T10:30:31.379Z,103661.16
2023-02-11T10:33:04.493Z,103661.81
2023-02-11T10:35:32.322Z,103659.09
2023-02-11T10:37:59.940Z,103666.28
2023-02-11T10:40:29.663Z,103676.22
2023-02-11T10:43:01.220Z,103667.97
2023-02-11T10:45:38.475Z,103670.38
2023-02-11T10:48:07.007Z,103670.16
2023-02-11T10:50:35.517Z,103668.13
2023-02-11T10:53:17.199Z,103670.63
2023-02-11T10:55:52.882Z,103666.94
2023-02-11T10:58:29.053Z,103664.88
2023-02-11T11:00:58.950Z,103672.63
2023-02-11T11:03:39.549Z,103661.53
2023-02-11T11:06:09.779Z,103655.88
2023-02-11T11:08:45.366Z,103658.28
2023-02-11T11:11:14.893Z,103656.31
2023-02-11T11:13:54.213Z,103657.13
2023-02-11T11:16:33.689Z,103655.88
2023-02-11T11:19:09.414Z,103653.72
2023-02-11T11:21:40.682Z,103661.59
2023-02-11T11:24:19.056Z,103668.56
2023-02-11T11:26:55.262Z,103666.41
2023-02-11T11:29:33.985Z,103659.00
2023-02-11T11:32:05.700Z,103665.31
2023-02-11T11:34:39.426Z,103665.09
2023-02-11T11:37:28.901Z,103657.72
2023-02-11T11:40:08.435Z,103653.47
2023-02-11T11:42:37.335Z,103656.53
2023-02-11T11:45:24.935Z,103646.91
2023-02-11T11:48:03.469Z,103646.28
2023-02-11T11:50:56.294Z,103649.09
2023-02-11T11:54:02.915Z,103653.56
2023-02-11T11:56:33.904Z,103652.47
2023-02-11T11:59:06.672Z,103648.75
2023-02-11T12:01:48.242Z,103643.94
2023-02-11T12:04:18.021Z,103632.81
2023-02-11T12:06:45.595Z,103633.47
2023-02-11T12:09:37.339Z,103629.53
2023-02-11T12:12:06.773Z,103625.59
2023-02-11T12:14:36.038Z,103626.44
2023-02-11T12:17:08.794Z,103622.78
2023-02-11T12:19:44.293Z,103622.00
2023-02-11T12:22:23.726Z,103619.88
2023-02-11T12:25:08.962Z,103616.94
2023-02-11T12:27:44.414Z,103617.69
2023-02-11T12:30:23.141Z,103619.66
2023-02-11T12:32:57.763Z,103619.38
2023-02-11T12:35:42.729Z,103610.13
2023-02-11T12:38:16.241Z,103617.03
2023-02-11T12:41:10.347Z,103619.78
2023-02-11T12:43:42.751Z,103615.94
2023-02-11T12:46:10.251Z,103618.69
2023-02-11T12:48:39.615Z,103625.59
2023-02-11T12:51:15.507Z,103630.28
2023-02-11T12:53:49.475Z,103626.78
2023-02-11T12:56:29.215Z,103627.00
2023-02-11T12:59:00.117Z,103625.38
2023-02-11T13:01:29.067Z,103628.66
2023-02-11T13:04:06.748Z,103618.22
2023-02-11T13:06:41.932Z,103613.41
2023-02-11T13:09:19.168Z,103612.97
2023-02-11T13:11:52.275Z,103610.47
2023-02-11T13:14:29.082Z,103608.84
2023-02-11T13:16:58.548Z,103612.53
2023-02-11T13:19:38.255Z,103621.72
2023-02-11T13:22:57.482Z,103618.13
2023-02-11T13:25:40.795Z,103625.09
2023-02-11T13:28:10.514Z,103618.88
2023-02-11T13:30:41.095Z,103625.44
2023-02-11T13:33:17.154Z,103621.72
2023-02-11T13:36:09.963Z,103628.72
2023-02-11T13:38:37.954Z,103629.47
2023-02-11T13:41:25.718Z,103625.53
2023-02-11T13:44:22.816Z,103629.03
2023-02-11T13:47:02.461Z,103620.84
2023-02-11T13:49:42.929Z,103621.47
2023-02-11T13:52:33.170Z,103617.44
2023-02-11T13:55:14.741Z,103613.16
2023-02-11T13:57:42.302Z,103602.44
2023-02-11T14:00:34.216Z,103600.75
2023-02-11T14:03:31.841Z,103583.75
2023-02-11T14:06:42.981Z,103591.03
2023-02-11T14:09:29.511Z,103583.13
2023-02-11T14:12:32.570Z,103577.00
2023-02-11T14:15:20.056Z,103567.00
2023-02-11T14:17:47.078Z,103567.38
2023-02-11T14:20:44.605Z,103564.41
2023-02-11T14:23:24.869Z,103563.06
2023-02-11T14:26:03.679Z,103564.19
2023-02-11T14:28:34.620Z,103556.31
2023-02-11T14:31:10.266Z,103558.44
2023-02-11T14:33:58.678Z,103556.28
2023-02-11T14:36:31.450Z,103558.41
2023-02-11T14:39:17.026Z,103544.94
2023-02-11T14:41:47.579Z,103548.94
2023-02-11T14:44:22.479Z,103546.53
2023-02-11T14:46:53.415Z,103544.19
2023-02-11T14:49:36.961Z,103550.09
2023-02-11T14:52:34.473Z,103549.72
2023-02-11T14:55:31.382Z,103552.16
2023-02-11T14:58:18.080Z,103547.25
2023-02-11T15:00:58.547Z,103552.41
2023-02-11T15:03:43.001Z,103554.81
2023-02-11T15:06:20.199Z,103554.44
2023-02-11T15:09:14.870Z,103559.59
2023-02-11T15:11:44.952Z,103555.34
2023-02-11T15:14:24.797Z,103553.81
2023-02-11T15:16:54.393Z,103557.75
2023-02-11T15:19:37.914Z,103554.50
2023-02-11T15:22:07.699Z,103555.47
2023-02-11T15:24:35.628Z,103554.72
2023-02-11T15:27:14.817Z,103549.38
2023-02-11T15:29:49.257Z,103556.91
2023-02-11T15:32:18.842Z,103563.69
2023-02-11T15:34:46.872Z,103561.19
2023-02-11T15:37:25.369Z,103564.88
2023-02-11T15:39:54.313Z,103562.28
2023-02-11T15:42:26.655Z,103565.13
2023-02-11T15:45:24.764Z,103567.09
2023-02-11T15:47:58.531Z,103567.09
2023-02-11T15:50:29.535Z,103567.19
2023-02-11T15:52:59.507Z,103570.03
2023-02-11T15:55:28.009Z,103573.84
2023-02-11T15:58:03.227Z,103575.06
2023-02-11T16:00:37.441Z,103577.13
2023-02-11T16:03:05.253Z,103567.41
2023-02-11T16:05:37.465Z,103573.09
2023-02-11T16:08:22.938Z,103575.03
2023-02-11T16:10:58.966Z,103571.56
2023-02-11T16:13:30.939Z,103566.34
2023-02-11T16:16:02.651Z,103570.03
2023-02-11T16:19:03.144Z,103564.81
2023-02-11T16:21:42.471Z,103573.09
2023-02-11T16:24:20.396Z,103570.69
2023-02-11T16:26:56.264Z,103572.66
2023-02-11T16:29:33.716Z,103580.06
2023-02-11T16:32:10.187Z,103570.34
2023-02-11T16:34:37.536Z,103572.31
2023-02-11T16:37:05.805Z,103567.84
2023-02-11T16:39:32.877Z,103574.25
2023-02-11T16:42:00.147Z,103569.94
2023-02-11T16:44:27.137Z,103570.91
2023-02-11T16:46:54.314Z,103575.47
2023-02-11T16:49:28.511Z,103571.19
2023-02-11T16:52:01.120Z,103568.47
2023-02-11T16:54:29.372Z,103572.19
2023-02-11T16:56:56.999Z,103575.03
2023-02-11T16:59:23.949Z,103579.59
2023-02-11T17:01:53.428Z,103586.03
2023-02-11T17:04:31.252Z,103587.97
2023-02-11T17:06:58.790Z,103586.44
2023-02-11T17:09:30.306Z,103587.41
2023-02-11T17:11:57.709Z,103594.72
2023-02-11T17:14:24.784Z,103594.94
2023-02-11T17:16:51.999Z,103594.16
2023-02-11T17:19:21.142Z,103597.97
2023-02-11T17:21:50.374Z,103597.22
2023-02-11T17:24:17.903Z,103596.53
2023-02-11T17:26:45.694Z,103596.53
2023-02-11T17:29:16.023Z,103601.22
2023-02-11T17:31:43.350Z,103603.94
2023-02-11T17:34:10.779Z,103603.09
2023-02-11T17:36:37.746Z,103605.03
2023-02-11T17:39:08.037Z,103607.00
2023-02-11T17:41:36.824Z,103598.91
2023-02-11T17:44:04.054Z,103602.63
2023-02-11T17:46:32.257Z,103603.47
2023-02-11T17:48:59.684Z,103599.09
2023-02-11T17:51:33.186Z,103602.69
2023-02-11T17:54:02.635Z,103601.81
2023-02-11T17:56:33.155Z,103606.38
2023-02-11T17:59:00.100Z,103602.88
2023-02-11T18:01:31.444Z,103611.03
2023-02-11T18:03:58.298Z,103618.47
2023-02-11T18:06:25.583Z,103626.72
2023-02-11T18:08:52.474Z,103629.56
2023-02-11T18:11:19.469Z,103628.56
2023-02-11T18:13:51.490Z,103625.84
2023-02-11T18:16:18.265Z,103634.09
2023-02-11T18:18:45.439Z,103629.66
2023-02-11T18:21:14.265Z,103631.50
2023-02-11T18:23:41.047Z,103624.31
2023-02-11T18:26:09.410Z,103630.75
2023-02-11T18:28:36.306Z,103628.00
2023-02-11T18:31:04.199Z,103631.69
2023-02-11T18:33:31.403Z,103635.38
2023-02-11T18:35:58.283Z,103637.16
2023-02-11T18:38:25.279Z,103636.47
2023-02-11T18:40:52.583Z,103638.31
2023-02-11T18:43:20.471Z,103636.56
2023-02-11T18:45:49.250Z,103639.41
2023-02-11T18:48:17.395Z,103636.69
2023-02-11T18:50:45.498Z,103635.03
2023-02-11T18:53:15.728Z,103647.66
2023-02-11T18:55:44.419Z,103651.34
2023-02-11T18:58:11.384Z,103649.53
2023-02-11T19:00:40.617Z,103647.78
2023-02-11T19:03:07.581Z,103656.91
2023-02-11T19:05:42.055Z,103657.00
2023-02-11T19:08:08.972Z,103661.59
2023-02-11T19:10:35.703Z,103664.31
2023-02-11T19:13:02.564Z,103668.84
2023-02-11T19:15:29.333Z,103658.06
2023-02-11T19:17:56.113Z,103665.59
2023-02-11T19:20:23.120Z,103662.06
2023-02-11T19:22:49.918Z,103654.00
2023-02-11T19:25:16.644Z,103669.47
2023-02-11T19:27:43.625Z,103662.28
2023-02-11T19:30:11.116Z,103656.16
2023-02-11T19:32:37.781Z,103653.53
2023-02-11T19:35:04.773Z,103654.53
2023-02-11T19:37:31.567Z,103642.00
2023-02-11T19:39:58.226Z,103646.53
2023-02-11T19:42:27.609Z,103644.81
2023-02-11T19:44:54.606Z,103640.44
2023-02-11T19:47:27.777Z,103639.66
2023-02-11T19:49:56.050Z,103638.69
2023-02-11T19:52:22.703Z,103643.25
2023-02-11T19:54:49.560Z,103636.06
2023-02-11T19:57:16.608Z,103643.25
2023-02-11T19:59:43.273Z,103629.56
2023-02-11T20:02:13.301Z,103628.78
2023-02-11T20:04:40.221Z,103633.25
2023-02-11T20:07:06.862Z,103629.78
2023-02-11T20:09:33.621Z,103628.00
2023-02-11T20:12:00.674Z,103628.00
2023-02-11T20:14:28.154Z,103629.84
2023-02-11T20:16:55.078Z,103633.44
2023-02-11T20:19:22.346Z,103629.84
2023-02-11T20:21:52.025Z,103636.28
2023-02-11T20:25:18.693Z,103626.25
2023-02-11T20:27:45.362Z,103618.97
2023-02-11T20:30:13.283Z,103630.84
2023-02-11T20:32:40.231Z,103633.56
2023-02-11T20:35:08.407Z,103625.41
2023-02-11T20:37:35.269Z,103635.22
2023-02-11T20:40:02.665Z,103642.38
2023-02-11T20:42:30.148Z,103639.66
2023-02-11T20:44:56.895Z,103641.50
2023-02-11T20:47:23.757Z,103635.28
2023-02-11T20:49:50.578Z,103644.53
2023-02-11T20:52:17.358Z,103647.25
2023-02-11T20:54:44.411Z,103645.50
2023-02-11T20:57:11.070Z,103647.38
2023-02-11T20:59:37.833Z,103648.44
2023-02-11T21:02:04.950Z,103638.41
2023-02-11T21:04:32.742Z,103655.69
2023-02-11T21:07:01.775Z,103651.25
2023-02-11T21:10:28.401Z,103660.38
2023-02-11T21:12:55.188Z,103658.50
2023-02-11T21:15:24.274Z,103656.69
2023-02-11T21:17:51.540Z,103659.47
2023-02-11T21:20:18.433Z,103667.63
2023-02-11T21:22:45.193Z,103666.56
2023-02-11T21:25:12.015Z,103668.44
2023-02-11T21:27:38.777Z,103671.25
2023-02-11T21:30:06.721Z,103672.22
2023-02-11T21:32:33.637Z,103669.69
2023-02-11T21:35:02.302Z,103674.28
2023-02-11T21:37:29.313Z,103671.44
2023-02-11T21:39:56.074Z,103672.41
2023-02-11T21:42:22.827Z,103672.31
2023-02-11T21:44:49.646Z,103674.06
2023-02-11T21:47:16.423Z,103677.66
2023-02-11T21:49:43.339Z,103680.38
2023-02-11T21:52:10.014Z,103681.22
2023-02-11T21:54:36.759Z,103683.00
2023-02-11T21:57:03.573Z,103681.34
2023-02-11T21:59:33.062Z,103682.13
2023-02-11T22:01:59.871Z,103678.63
2023-02-11T22:04:27.072Z,103680.56
2023-02-11T22:06:53.872Z,103677.06
2023-02-11T22:09:20.617Z,103678.91
2023-02-11T22:11:49.336Z,103672.63
2023-02-11T22:14:16.954Z,103680.78
2023-02-11T22:16:47.522Z,103687.06
2023-02-11T22:19:14.561Z,103680.78
2023-02-11T22:21:43.586Z,103677.06
2023-02-11T22:24:10.603Z,103681.53
2023-02-11T22:26:37.991Z,103685.16
2023-02-11T22:29:04.922Z,103685.06
2023-02-11T22:31:33.957Z,103683.41
2023-02-11T22:34:02.227Z,103682.50
2023-02-11T22:36:34.856Z,103673.47
2023-02-11T22:39:03.882Z,103676.19
2023-02-11T22:41:30.849Z,103673.56
2023-02-11T22:43:57.855Z,103666.19
2023-02-11T22:46:24.657Z,103676.19
2023-02-11T22:48:51.882Z,103673.38
2023-02-11T22:51:25.426Z,103675.13
2023-02-11T22:53:52.959Z,103669.69
2023-02-11T22:56:20.505Z,103674.28
2023-02-11T22:58:50.569Z,103673.38
2023-02-11T23:01:17.902Z,103672.50
2023-02-11T23:03:44.751Z,103669.78
2023-02-11T23:06:12.210Z,103669.69
2023-02-11T23:08:40.645Z,103682.44
2023-02-11T23:11:10.429Z,103680.56
2023-02-11T23:13:39.777Z,103677.75
2023-02-11T23:16:09.284Z,103678.81
2023-02-11T23:18:38.305Z,103677.06
2023-02-11T23:21:09.495Z,103676.19
2023-02-11T23:23:37.447Z,103675.34
2023-02-11T23:26:04.947Z,103676.19
2023-02-11T23:28:31.777Z,103679.88
2023-02-11T23:30:58.539Z,103671.63
2023-02-11T23:33:25.261Z,103673.38
2023-02-11T23:35:52.434Z,103686.00
2023-02-11T23:38:19.250Z,103677.84
2023-02-11T23:40:46.556Z,103675.22
2023-02-11T23:43:13.469Z,103668.91
2023-02-11T23:45:40.264Z,103667.94
2023-02-11T23:48:06.982Z,103676.09
2023-02-11T23:50:34.786Z,103675.34
2023-02-11T23:53:01.558Z,103676.31
2023-02-11T23:55:30.758Z,103677.25
2023-02-11T23:57:57.755Z,103682.69
